• Join FlightAware (Why Join?)
  • Login
  • US Flag 
09:25AM EDT


 

Airport Tracker/Info


-or-


 

Live Flight TrackerFlight Track Log ✈ EGF3681 ✈ 29-Aug-2013 ✈ KORD - KDAY

Flight Track Log - Related Links

Times and Time Zones

All times are in EDT time to prevent confusion due to time zone crossing. See the EGF3681 flight status page for this flight to view local times or setup timezone preferences in your user account.

Time Position Orientation Groundspeed Altitude Reporting Facility
EDT Latitude Longitude Course Direction KTS MPH feet Rate Location/Type
10:53PM 41.9167 -87.8667 90° East 232 267 2,600  Level Chicago TRACON
10:55PM 41.9643 -87.5095 98° East  Level FlightAware Approximate
10:55PM 41.9258 -87.6986 86° East 265 305 6,800  Level Chicago Center
10:56PM 41.9514 -87.3805 98° East  Level FlightAware Approximate
10:56PM 41.9281 -87.5958 88° East 274 315 8,700  Level Chicago Center
10:57PM 41.9418 -87.2509 95° East  Level FlightAware Approximate
10:57PM 41.9308 -87.4878 88° East 288 331 10,200  Level Chicago Center
10:58PM 41.9333 -87.1213 90° East  Level FlightAware Approximate
10:58PM 41.9367 -87.3661 86° East 320 368 10,800  Level Chicago Center
10:59PM 41.9333 -86.9953 90° East  Level FlightAware Approximate
10:59PM 41.9400 -87.2336 88° East 348 400 11,800  Level Chicago Center
11:00PM 41.9408 -87.0931 89° East 371 427 12,800 960 Climbing Chicago Center
11:01PM 41.9203 -86.9533 101° East 382 440 13,800 960 Climbing Chicago Center
11:02PM 41.9039 -86.8114 99° East 385 443 14,800 1,020 Climbing Chicago Center
11:03PM 41.8858 -86.6653 99° East 390 449 15,900 1,020 Climbing Chicago Center
11:04PM 41.8689 -86.5222 99° East 389 448 16,900 900 Climbing Chicago Center
11:05PM 41.8292 -86.3906 112° Southeast 389 448 17,800 900 Climbing Chicago Center
11:06PM 41.7550 -86.2792 132° Southeast 399 459 18,800 1,080 Climbing Chicago Center
11:07PM 41.6686 -86.1436 130° Southeast 401 461 20,100 1,080 Climbing Chicago Center
11:08PM 41.5953 -86.0289 131° Southeast 407 468 21,100 960 Climbing Chicago Center
11:09PM 41.5211 -85.9139 131° Southeast 411 473 22,100 900 Climbing Chicago Center
11:10PM 41.4486 -85.8003 130° Southeast 409 471 23,000 420 Climbing Chicago Center
11:11PM 41.3714 -85.6800 131° Southeast 425 489 23,000  Level Chicago Center
11:12PM 41.2928 -85.5564 130° Southeast 438 504 23,000  Level Chicago Center
11:13PM 41.2111 -85.4308 131° Southeast 449 517 23,000 -660 Level Chicago Center
11:14PM 41.1097 -85.2747 131° Southeast 461 531 21,700 -1,680 Descending Chicago Center
11:15PM 41.0281 -85.1500 131° Southeast 459 528 19,600 -1,980 Descending Chicago Center
11:16PM 40.9497 -85.0283 130° Southeast 448 516 17,700 -1,920 Descending Chicago Center
11:17PM 40.8733 -84.9158 132° Southeast 430 495 15,700 -1,380 Descending Chicago Center
11:18PM 40.8006 -84.8044 131° Southeast 413 475 15,000 -360 Descending Chicago Center
11:20PM 40.7261 -84.6942 132° Southeast 406 467 15,000 -360 Level Chicago Center
11:20PM 40.6658 -84.6017 131° Southeast 408 470 14,400 -900 Descending Indianapolis Center
11:21PM 40.5903 -84.4906 132° Southeast 408 470 13,400 -1,020 Descending Indianapolis Center
11:22PM 40.4722 -84.4394 162° South 382 440 12,300 -1,020 Descending Indianapolis Center
11:23PM 40.3881 -84.4078 164° South 382 440 11,400 -1,020 Descending Indianapolis Center
11:24PM 40.3003 -84.3733 163° South 342 394 10,300 -1,620 Descending Indianapolis Center
11:25PM 40.2128 -84.3672 177° South 286 329 8,400 -1,800 Descending Indianapolis Center
11:26PM 40.1361 -84.3753 185° South 276 318 6,900 -1,320 Descending Indianapolis Center
11:27PM 40.0633 -84.3867 187° South 261 300 5,800 -1,080 Descending Indianapolis Center
11:28PM 39.9947 -84.3797 176° South 251 289 4,800 -1,020 Descending Indianapolis Center
11:29PM 39.9239 -84.3722 175° South 255 293 3,800 -1,020 Descending Indianapolis Center
11:30PM 39.8683 -84.3403 156° South 187 215 2,800 -900 Descending Indianapolis Center
11:31PM 39.8786 -84.2842 77° East 184 212 1,900 -900 Descending Indianapolis Center
11:32PM 39.8928 -84.2492 62° Northeast 138 159 1,100 -1,080 Descending Indianapolis Center